EDT,Max TemperatureF,Mean TemperatureF,Min TemperatureF,Max Dew PointF,MeanDew PointF,Min DewpointF,Max Humidity, Mean Humidity, Min Humidity, Max Sea Level PressureIn, Mean Sea Level PressureIn, Min Sea Level PressureIn, Max VisibilityMiles, Mean VisibilityMiles, Min VisibilityMiles, Max Wind SpeedMPH, Mean Wind SpeedMPH, Max Gust SpeedMPH,PrecipitationIn, CloudCover, Events, WindDirDegrees
2013-3-1,39,36,32,32,27,25,92,69,57,29.72,29.64,29.52,10,10,10,13,6,18,0.00,7,,333
2013-3-2,41,36,32,27,24,22,70,62,53,29.71,29.68,29.64,10,10,10,12,7,20,0.00,6,,323
2013-3-3,39,34,28,28,25,22,86,72,56,29.68,29.63,29.55,10,7,1,13,7,20,0.01,8,Snow,321
2013-3-4,36,33,30,27,22,19,80,66,52,29.79,29.67,29.59,10,8,2,18,13,29,0.00,7,Snow,312
2013-3-5,44,36,28,32,25,19,86,63,47,30.12,29.99,29.81,10,10,10,13,8,21,0.00,7,Rain,349
2013-3-6,37,35,32,32,30,26,92,83,70,30.19,30.14,30.06,10,6,1,20,10,30,0.08,8,Rain-Snow,45
2013-3-7,35,32,30,29,27,23,93,79,66,30.18,30.10,30.02,10,4,0,21,15,34,0.03,8,Fog-Snow,9
2013-3-8,45,36,28,27,25,18,93,73,35,30.22,30.05,29.98,10,4,0,17,13,24,0.12,6,Fog-Snow,1
2013-3-9,54,40,27,27,20,9,85,56,17,30.40,30.29,30.21,10,10,10,9,5,,0.00,0,,2
2013-3-10,45,33,21,29,26,19,89,71,49,30.46,30.39,30.33,10,10,7,13,3,,0.00,0,,138
2013-3-11,51,42,32,37,31,28,89,68,41,30.34,30.23,30.12,10,10,9,12,6,,0.00,2,,175
2013-3-12,54,48,42,51,45,37,100,90,77,30.16,29.97,29.73,10,5,0,18,9,26,0.40,8,Rain,149
2013-3-13,50,44,35,48,28,18,88,57,33,29.81,29.77,29.71,10,10,10,14,8,22,0.00,3,,299
2013-3-14,35,28,21,21,12,3,64,47,37,29.87,29.79,29.73,10,10,10,23,7,29,0.00,4,,290
2013-3-15,39,29,19,29,10,0,89,49,21,29.90,29.79,29.66,10,10,8,18,11,29,0.00,4,Snow,286
2013-3-16,37,32,27,20,11,6,64,43,29,29.92,29.84,29.73,10,10,10,13,8,21,0.00,2,,328
2013-3-17,35,28,21,14,6,-2,68,41,24,30.36,30.10,29.92,10,10,10,22,6,29,0.00,1,,315
2013-3-18,37,27,17,25,2,-7,82,37,16,30.50,30.39,30.28,10,10,2,12,6,,0.00,2,Snow,85
2013-3-19,34,28,24,31,28,21,96,90,81,30.24,29.88,29.66,4,1,0,15,8,31,0.54,8,Fog-Snow,51
2013-3-20,37,31,25,22,19,16,88,64,46,29.83,29.76,29.73,10,10,9,14,7,28,0.01,5,,250
2013-3-21,39,30,21,24,15,9,81,57,29,29.83,29.74,29.63,10,10,10,6,2,,0.00,3,,174
2013-3-22,39,34,28,22,17,12,75,53,36,29.75,29.68,29.61,10,10,10,12,6,21,0.00,5,,296
2013-3-23,42,35,28,19,17,14,67,49,33,29.80,29.73,29.67,10,10,10,18,11,36,0.00,4,,280
2013-3-24,46,39,33,22,21,19,61,49,36,29.85,29.81,29.77,10,10,10,17,9,32,0.00,4,,314
2013-3-25,45,37,30,27,24,21,69,60,49,29.81,29.69,29.59,10,10,10,17,7,20,0.00,4,,23
2013-3-26,51,42,35,26,20,15,67,45,25,29.81,29.70,29.60,10,10,10,16,9,22,0.00,4,,319
2013-3-27,53,40,28,32,23,21,76,50,31,29.92,29.83,29.78,10,10,7,18,7,26,0.00,3,Rain,330
2013-3-28,50,42,37,34,30,26,89,64,42,30.05,29.98,29.92,10,10,5,13,7,16,0.00,7,Rain,334
2013-3-29,55,45,37,31,30,28,73,55,38,30.08,30.05,30.01,10,10,10,10,4,18,0.00,6,Rain,322
2013-3-30,55,46,36,30,20,11,73,42,18,30.13,30.08,30.04,10,10,10,15,4,21,0.00,2,,324
2013-3-31,60,44,28,39,23,16,76,49,19,30.15,30.04,29.80,10,10,9,16,4,22,0.04,2,Rain,179